createdAt,value
2018-12-14T00:01:20.260Z,20.57
2018-12-14T00:03:49.251Z,20.87
2018-12-14T00:06:18.187Z,19.87
2018-12-14T00:08:47.151Z,21.40
2018-12-14T00:11:16.143Z,20.70
2018-12-14T00:13:45.233Z,20.73
2018-12-14T00:16:14.107Z,20.07
2018-12-14T00:18:42.996Z,22.37
2018-12-14T00:21:11.940Z,21.97
2018-12-14T00:23:40.642Z,19.23
2018-12-14T00:26:09.592Z,19.53
2018-12-14T00:28:38.452Z,18.13
2018-12-14T00:31:07.615Z,18.30
2018-12-14T00:33:36.677Z,18.27
2018-12-14T00:36:05.735Z,18.63
2018-12-14T00:38:34.825Z,18.50
2018-12-14T00:41:03.721Z,16.73
2018-12-14T00:43:32.790Z,17.60
2018-12-14T00:46:01.792Z,16.73
2018-12-14T00:48:30.823Z,16.30
2018-12-14T00:50:59.445Z,16.27
2018-12-14T00:53:28.303Z,16.27
2018-12-14T00:55:56.927Z,16.70
2018-12-14T00:58:25.973Z,14.53
2018-12-14T01:00:54.975Z,15.03
2018-12-14T01:03:23.696Z,16.43
2018-12-14T01:05:52.904Z,16.10
2018-12-14T01:08:21.639Z,18.10
2018-12-14T01:10:50.498Z,18.20
2018-12-14T01:13:19.520Z,17.43
2018-12-14T01:15:48.446Z,20.50
2018-12-14T01:18:17.347Z,20.37
2018-12-14T01:20:46.289Z,21.43
2018-12-14T01:23:15.256Z,21.77
2018-12-14T01:25:44.050Z,21.90
2018-12-14T01:28:12.818Z,19.53
2018-12-14T01:30:41.662Z,19.87
2018-12-14T01:33:10.640Z,23.30
2018-12-14T01:35:39.547Z,22.57
2018-12-14T01:38:08.394Z,23.00
2018-12-14T01:40:37.332Z,23.63
2018-12-14T01:43:06.298Z,23.50
2018-12-14T01:45:35.494Z,22.23
2018-12-14T01:48:04.457Z,23.43
2018-12-14T01:50:33.418Z,23.10
2018-12-14T01:53:02.222Z,26.43
2018-12-14T01:55:31.252Z,24.20
2018-12-14T01:58:00.314Z,24.80
2018-12-14T02:00:29.386Z,23.27
2018-12-14T02:02:58.252Z,24.10
2018-12-14T02:05:27.315Z,23.17
2018-12-14T02:07:56.079Z,23.07
2018-12-14T02:10:25.066Z,23.87
2018-12-14T02:12:54.058Z,22.00
2018-12-14T02:15:22.744Z,23.73
2018-12-14T02:17:51.675Z,22.43
2018-12-14T02:20:20.504Z,22.97
2018-12-14T02:22:49.371Z,22.23
2018-12-14T02:25:18.345Z,23.43
2018-12-14T02:27:47.363Z,22.23
2018-12-14T02:30:27.091Z,23.50
2018-12-14T02:32:56.118Z,21.77
2018-12-14T02:35:25.068Z,22.67
2018-12-14T02:37:54.287Z,21.50
2018-12-14T02:40:23.353Z,22.33
2018-12-14T02:42:52.274Z,22.43
2018-12-14T02:45:21.193Z,26.33
2018-12-14T02:47:50.235Z,29.70
2018-12-14T02:50:19.318Z,26.10
2018-12-14T02:52:48.377Z,26.77
2018-12-14T02:55:17.467Z,27.43
2018-12-14T02:57:46.531Z,26.90
2018-12-14T03:00:15.241Z,25.73
2018-12-14T03:02:44.457Z,25.03
2018-12-14T03:05:13.399Z,25.27
2018-12-14T03:07:42.354Z,30.10
2018-12-14T03:10:11.505Z,37.07
2018-12-14T03:12:40.364Z,31.77
2018-12-14T03:15:09.399Z,34.07
2018-12-14T03:17:38.544Z,33.43
2018-12-14T03:20:08.476Z,33.03
2018-12-14T03:22:37.625Z,35.53
2018-12-14T03:25:06.759Z,35.43
2018-12-14T03:27:35.799Z,34.03
2018-12-14T03:30:05.435Z,35.33
2018-12-14T03:32:34.468Z,32.70
2018-12-14T03:35:03.305Z,32.43
2018-12-14T03:37:32.377Z,34.17
2018-12-14T03:40:01.407Z,32.43
2018-12-14T03:42:34.234Z,33.57
2018-12-14T03:45:01.305Z,34.93
2018-12-14T03:47:30.040Z,34.83
2018-12-14T03:49:59.174Z,33.73
2018-12-14T03:52:28.206Z,34.17
2018-12-14T03:54:56.936Z,33.83
2018-12-14T03:57:25.792Z,35.30
2018-12-14T03:59:54.706Z,32.37
2018-12-14T04:02:23.571Z,35.70
2018-12-14T04:04:52.488Z,36.93
2018-12-14T04:07:21.469Z,35.43
2018-12-14T04:09:50.417Z,34.57
2018-12-14T04:12:19.508Z,36.23
2018-12-14T04:14:48.649Z,34.93
2018-12-14T04:17:17.681Z,33.90
2018-12-14T04:19:46.744Z,33.17
2018-12-14T04:22:15.659Z,34.27
2018-12-14T04:24:44.593Z,33.40
2018-12-14T04:27:13.639Z,31.47
2018-12-14T04:29:42.553Z,36.60
2018-12-14T04:32:11.301Z,40.67
2018-12-14T04:34:40.429Z,41.60
2018-12-14T04:37:09.342Z,44.40
2018-12-14T04:39:38.064Z,40.50
2018-12-14T04:42:07.090Z,72.53
2018-12-14T04:44:35.744Z,79.33
2018-12-14T04:47:04.657Z,55.67
2018-12-14T04:49:33.849Z,107.00
2018-12-14T04:52:05.196Z,89.73
2018-12-14T04:54:34.266Z,43.40
2018-12-14T04:57:03.139Z,37.60
2018-12-14T04:59:32.224Z,44.23
2018-12-14T05:02:01.284Z,40.43
2018-12-14T05:04:30.334Z,39.60
2018-12-14T05:06:59.196Z,39.10
2018-12-14T05:09:28.366Z,80.37
2018-12-14T05:11:57.369Z,46.37
2018-12-14T05:14:26.319Z,41.30
2018-12-14T05:16:55.200Z,35.90
2018-12-14T05:19:24.204Z,32.53
2018-12-14T05:21:53.228Z,32.87
2018-12-14T05:24:21.888Z,32.20
2018-12-14T05:26:50.503Z,33.30
2018-12-14T05:29:19.464Z,29.97
2018-12-14T05:31:48.293Z,30.93
2018-12-14T05:34:17.389Z,30.10
2018-12-14T05:36:45.992Z,29.27
2018-12-14T05:39:15.191Z,30.87
2018-12-14T05:41:44.032Z,32.43
2018-12-14T05:44:12.968Z,30.37
2018-12-14T05:46:42.080Z,30.47
2018-12-14T05:49:11.088Z,30.43
2018-12-14T05:51:40.038Z,32.03
2018-12-14T05:54:09.059Z,34.83
2018-12-14T05:56:38.183Z,27.93
2018-12-14T05:59:06.995Z,25.73
2018-12-14T06:01:36.048Z,27.17
2018-12-14T06:04:05.311Z,33.57
2018-12-14T06:06:34.037Z,32.40
2018-12-14T06:09:04.192Z,35.33
2018-12-14T06:11:33.277Z,40.47
2018-12-14T06:14:02.281Z,37.60
2018-12-14T06:16:30.948Z,33.20
2018-12-14T06:18:59.966Z,60.40
2018-12-14T06:21:29.076Z,59.80
2018-12-14T06:23:58.046Z,48.20
2018-12-14T06:26:27.075Z,52.10
2018-12-14T06:28:55.980Z,49.70
2018-12-14T06:31:25.008Z,47.97
2018-12-14T06:33:53.740Z,32.40
2018-12-14T06:36:22.584Z,35.43
2018-12-14T06:38:51.525Z,38.83
2018-12-14T06:41:20.455Z,37.50
2018-12-14T06:43:49.518Z,43.00
2018-12-14T06:46:18.838Z,33.80
2018-12-14T06:48:47.897Z,38.37
2018-12-14T06:51:16.939Z,38.07
2018-12-14T06:53:45.956Z,41.73
2018-12-14T06:56:14.847Z,41.37
2018-12-14T06:58:43.839Z,45.80
2018-12-14T07:01:12.872Z,54.87
2018-12-14T07:03:41.912Z,65.90
2018-12-14T07:06:10.828Z,52.60
2018-12-14T07:08:39.554Z,44.93
2018-12-14T07:11:08.488Z,46.80
2018-12-14T07:13:37.248Z,44.60
2018-12-14T07:16:06.289Z,47.10
2018-12-14T07:18:35.383Z,44.60
2018-12-14T07:21:04.285Z,42.93
2018-12-14T07:23:33.334Z,46.53
2018-12-14T07:26:02.099Z,40.67
2018-12-14T07:28:30.808Z,112.67
2018-12-14T07:30:59.893Z,87.30
2018-12-14T07:33:28.850Z,179.97
2018-12-14T07:35:57.753Z,80.50
2018-12-14T07:38:26.834Z,60.00
2018-12-14T07:40:55.701Z,51.30
2018-12-14T07:43:28.323Z,43.37
2018-12-14T07:45:55.494Z,33.93
2018-12-14T07:48:24.361Z,30.43
2018-12-14T07:50:53.325Z,34.97
2018-12-14T07:53:22.091Z,39.70
2018-12-14T07:55:51.253Z,47.70
2018-12-14T07:58:20.374Z,34.47
2018-12-14T08:00:49.411Z,49.83
2018-12-14T08:03:18.430Z,60.13
2018-12-14T08:05:47.491Z,44.70
2018-12-14T08:08:16.728Z,33.03
2018-12-14T08:10:45.692Z,35.23
2018-12-14T08:13:14.801Z,39.67
2018-12-14T08:15:43.767Z,45.53
2018-12-14T08:18:12.695Z,37.03
2018-12-14T08:20:41.636Z,53.40
2018-12-14T08:23:10.308Z,64.20
2018-12-14T08:25:39.201Z,45.30
2018-12-14T08:28:08.194Z,50.30
2018-12-14T08:30:37.312Z,44.80
2018-12-14T08:33:06.403Z,41.97
2018-12-14T08:35:35.292Z,39.50
2018-12-14T08:38:04.324Z,32.00
2018-12-14T08:40:33.393Z,30.23
2018-12-14T08:43:02.040Z,38.27
2018-12-14T08:45:30.936Z,48.13
2018-12-14T08:48:00.151Z,44.93
2018-12-14T08:50:29.054Z,40.67
2018-12-14T08:52:57.938Z,41.87
2018-12-14T08:55:26.611Z,35.37
2018-12-14T08:57:55.317Z,34.27
2018-12-14T09:00:24.403Z,36.47
2018-12-14T09:02:53.394Z,42.13
2018-12-14T09:05:22.321Z,39.87
2018-12-14T09:07:51.356Z,33.07
2018-12-14T09:10:20.377Z,30.43
2018-12-14T09:12:49.358Z,29.13
2018-12-14T09:15:18.141Z,31.20
2018-12-14T09:17:47.394Z,28.97
2018-12-14T09:20:16.552Z,31.87
2018-12-14T09:22:45.374Z,35.43
2018-12-14T09:25:14.297Z,36.40
2018-12-14T09:27:43.369Z,30.53
2018-12-14T09:30:12.551Z,31.27
2018-12-14T09:32:41.517Z,30.30
2018-12-14T09:35:10.438Z,44.17
2018-12-14T09:37:39.377Z,38.60
2018-12-14T09:40:08.428Z,35.50
2018-12-14T09:42:37.366Z,34.37
2018-12-14T09:45:06.931Z,44.40
2018-12-14T09:47:35.918Z,46.60
2018-12-14T09:50:05.192Z,35.00
2018-12-14T09:52:34.164Z,33.83
2018-12-14T09:55:03.204Z,33.03
2018-12-14T09:57:32.103Z,37.00
2018-12-14T10:00:01.006Z,33.57
2018-12-14T10:02:30.124Z,36.90
2018-12-14T10:04:59.042Z,38.83
2018-12-14T10:07:27.975Z,36.60
2018-12-14T10:09:56.940Z,38.83
2018-12-14T10:12:25.952Z,47.33
2018-12-14T10:14:54.794Z,32.70
2018-12-14T10:17:23.664Z,35.03
2018-12-14T10:19:52.708Z,37.93
2018-12-14T10:22:21.797Z,42.97
2018-12-14T10:24:50.646Z,41.40
2018-12-14T10:27:19.710Z,43.63
2018-12-14T10:29:48.720Z,41.60
2018-12-14T10:32:17.723Z,35.57
2018-12-14T10:34:46.821Z,32.40
2018-12-14T10:37:15.489Z,32.30
2018-12-14T10:39:44.544Z,34.67
2018-12-14T10:42:13.618Z,34.77
2018-12-14T10:44:42.547Z,35.83
2018-12-14T10:47:11.713Z,31.57
2018-12-14T10:49:40.810Z,33.33
2018-12-14T10:52:09.427Z,31.87
2018-12-14T10:54:38.735Z,32.07
2018-12-14T10:57:07.675Z,30.33
2018-12-14T10:59:36.640Z,33.07
2018-12-14T11:02:05.356Z,37.57
2018-12-14T11:04:34.121Z,48.30
2018-12-14T11:07:03.042Z,36.17
2018-12-14T11:09:32.245Z,45.20
2018-12-14T11:12:01.242Z,32.20
2018-12-14T11:14:29.943Z,31.73
2018-12-14T11:16:58.901Z,31.73
2018-12-14T11:19:27.896Z,34.83
2018-12-14T11:21:56.792Z,29.97
2018-12-14T11:24:25.847Z,31.63
2018-12-14T11:26:54.985Z,35.93
2018-12-14T11:29:24.562Z,29.80
2018-12-14T11:31:53.168Z,30.87
2018-12-14T11:34:22.325Z,30.60
2018-12-14T11:36:51.097Z,30.67
2018-12-14T11:39:20.206Z,28.90
2018-12-14T11:41:49.213Z,30.97
2018-12-14T11:44:21.342Z,33.67
2018-12-14T11:46:49.232Z,35.07
2018-12-14T11:49:18.185Z,32.33
2018-12-14T11:51:47.315Z,32.47
2018-12-14T11:54:17.492Z,33.03
2018-12-14T11:56:46.348Z,34.00
2018-12-14T11:59:15.260Z,32.90
2018-12-14T12:01:44.274Z,36.80
2018-12-14T12:04:13.265Z,33.33
2018-12-14T12:06:42.220Z,34.70
2018-12-14T12:09:12.303Z,32.73
2018-12-14T12:11:41.252Z,39.90
2018-12-14T12:14:10.227Z,45.07
2018-12-14T12:16:39.277Z,40.80
2018-12-14T12:19:08.285Z,38.40
2018-12-14T12:21:37.450Z,36.13
2018-12-14T12:24:06.248Z,34.30
2018-12-14T12:26:35.157Z,32.13
2018-12-14T12:29:03.849Z,27.70
2018-12-14T12:31:32.779Z,28.70
2018-12-14T12:34:01.476Z,29.67
2018-12-14T12:36:30.478Z,32.53
2018-12-14T12:38:59.400Z,30.90
2018-12-14T12:41:28.212Z,30.20
2018-12-14T12:43:57.277Z,30.97
2018-12-14T12:46:26.377Z,35.93
2018-12-14T12:48:55.502Z,32.43
2018-12-14T12:51:24.960Z,37.87
2018-12-14T12:53:53.707Z,35.10
2018-12-14T12:56:22.924Z,29.57
2018-12-14T12:58:51.912Z,33.63
2018-12-14T13:01:20.859Z,31.70
2018-12-14T13:03:49.896Z,33.10
2018-12-14T13:06:18.971Z,32.20
2018-12-14T13:08:48.070Z,35.13
2018-12-14T13:11:17.081Z,34.97
2018-12-14T13:13:46.031Z,31.63
2018-12-14T13:16:14.757Z,31.53
2018-12-14T13:18:43.549Z,35.07
2018-12-14T13:21:12.474Z,32.43
2018-12-14T13:23:41.513Z,31.73
2018-12-14T13:26:10.522Z,40.37
2018-12-14T13:28:39.461Z,38.83
2018-12-14T13:31:08.538Z,36.87
2018-12-14T13:33:37.704Z,36.23
2018-12-14T13:36:06.885Z,34.73
2018-12-14T13:38:35.831Z,34.93
2018-12-14T13:41:04.941Z,36.40
2018-12-14T13:43:33.895Z,38.57
2018-12-14T13:46:02.961Z,41.47
2018-12-14T13:48:31.799Z,35.83
2018-12-14T13:51:00.871Z,40.80
2018-12-14T13:53:29.868Z,43.17
2018-12-14T13:55:58.942Z,45.80
2018-12-14T13:58:28.003Z,42.70
2018-12-14T14:00:57.068Z,42.43
2018-12-14T14:03:25.984Z,43.13
2018-12-14T14:05:54.861Z,45.80
2018-12-14T14:08:23.831Z,39.70
2018-12-14T14:10:52.828Z,39.67
2018-12-14T14:13:21.895Z,41.20
2018-12-14T14:15:51.003Z,42.13
2018-12-14T14:18:19.943Z,46.23
2018-12-14T14:20:48.887Z,45.77
2018-12-14T14:23:17.708Z,42.33
2018-12-14T14:25:47.272Z,45.50
2018-12-14T14:28:16.289Z,47.23
2018-12-14T14:30:45.207Z,49.70
2018-12-14T14:33:14.152Z,44.63
2018-12-14T14:35:43.178Z,50.43
2018-12-14T14:38:12.216Z,51.03
2018-12-14T14:40:41.236Z,43.47
2018-12-14T14:43:10.156Z,41.50
2018-12-14T14:45:39.048Z,41.10
2018-12-14T14:48:08.207Z,40.40
2018-12-14T14:50:37.706Z,39.67
2018-12-14T14:53:06.642Z,37.87
2018-12-14T14:55:35.669Z,39.23
2018-12-14T14:58:04.764Z,44.73
2018-12-14T15:00:34.072Z,46.23
2018-12-14T15:03:03.250Z,47.70
2018-12-14T15:05:32.462Z,46.67
2018-12-14T15:08:01.393Z,42.90
2018-12-14T15:10:30.486Z,41.40
2018-12-14T15:12:59.307Z,40.47
2018-12-14T15:15:28.346Z,42.20
2018-12-14T15:17:57.128Z,39.10
2018-12-14T15:20:25.983Z,39.30
2018-12-14T15:22:54.844Z,44.10
2018-12-14T15:25:24.016Z,45.90
2018-12-14T15:27:53.332Z,48.23
2018-12-14T15:30:22.122Z,48.00
2018-12-14T15:32:50.944Z,47.43
2018-12-14T15:35:19.602Z,56.37
2018-12-14T15:37:48.437Z,92.40
2018-12-14T15:40:17.489Z,77.53
2018-12-14T15:42:46.424Z,68.87
2018-12-14T15:45:15.116Z,54.17
2018-12-14T15:47:44.125Z,50.10
2018-12-14T15:50:12.908Z,45.37
2018-12-14T15:52:41.629Z,44.70
2018-12-14T15:55:10.811Z,43.87
2018-12-14T15:57:39.815Z,44.13
2018-12-14T16:00:08.867Z,43.90
2018-12-14T16:02:37.911Z,41.83
2018-12-14T16:05:06.935Z,45.53
2018-12-14T16:07:35.718Z,46.17
2018-12-14T16:10:06.915Z,53.37
2018-12-14T16:12:36.022Z,51.70
2018-12-14T16:15:05.969Z,56.17
2018-12-14T16:17:35.544Z,60.97
2018-12-14T16:20:05.148Z,55.93
2018-12-14T16:22:34.253Z,53.17
2018-12-14T16:25:03.222Z,80.50
2018-12-14T16:27:32.264Z,76.87
2018-12-14T16:30:01.208Z,63.73
2018-12-14T16:32:30.195Z,58.17
2018-12-14T16:34:59.001Z,52.67
2018-12-14T16:37:27.968Z,56.87
2018-12-14T16:39:56.933Z,58.33
2018-12-14T16:42:26.785Z,52.17
2018-12-14T16:44:55.780Z,48.77
2018-12-14T16:47:25.727Z,58.77
2018-12-14T16:49:54.687Z,50.03
2018-12-14T16:52:23.608Z,49.37
2018-12-14T16:54:52.717Z,47.10
2018-12-14T16:57:21.756Z,45.03
2018-12-14T16:59:50.659Z,51.43
2018-12-14T17:02:19.769Z,47.83
2018-12-14T17:04:49.041Z,49.63
2018-12-14T17:07:18.064Z,48.33
2018-12-14T17:09:47.032Z,49.17
2018-12-14T17:12:15.968Z,45.97
2018-12-14T17:14:44.661Z,47.80
2018-12-14T17:17:13.642Z,44.63
2018-12-14T17:19:42.636Z,49.43
2018-12-14T17:22:11.705Z,50.37
2018-12-14T17:24:40.828Z,62.00
2018-12-14T17:27:10.049Z,81.47
2018-12-14T17:29:39.245Z,89.27
2018-12-14T17:32:08.040Z,62.20
2018-12-14T17:34:36.927Z,52.80
2018-12-14T17:37:05.888Z,49.27
2018-12-14T17:39:35.646Z,44.20
2018-12-14T17:42:04.711Z,47.03
2018-12-14T17:44:33.743Z,45.77
2018-12-14T17:47:02.812Z,46.40
2018-12-14T17:49:31.728Z,43.53
2018-12-14T17:52:00.722Z,44.00
2018-12-14T17:54:29.812Z,44.20
2018-12-14T17:56:58.805Z,53.27
2018-12-14T17:59:27.864Z,49.53
2018-12-14T18:01:56.842Z,58.23
2018-12-14T18:04:25.848Z,86.67
2018-12-14T18:06:54.716Z,60.90
2018-12-14T18:09:24.030Z,77.60
2018-12-14T18:11:52.844Z,66.80
2018-12-14T18:14:21.712Z,67.07
2018-12-14T18:16:50.775Z,56.00
2018-12-14T18:19:19.744Z,51.20
2018-12-14T18:21:48.490Z,82.97
2018-12-14T18:24:17.598Z,84.03
2018-12-14T18:26:48.237Z,90.93
2018-12-14T18:29:16.890Z,66.70
2018-12-14T18:31:45.721Z,62.23
2018-12-14T18:34:14.821Z,61.53
2018-12-14T18:36:43.844Z,65.63
2018-12-14T18:39:12.907Z,81.07
2018-12-14T18:41:42.049Z,101.80
2018-12-14T18:44:10.768Z,98.60
2018-12-14T18:46:40.399Z,65.27
2018-12-14T18:49:09.489Z,72.93
2018-12-14T18:51:40.097Z,60.87
2018-12-14T18:54:09.016Z,66.33
2018-12-14T18:56:38.040Z,75.50
2018-12-14T18:59:07.160Z,71.33
2018-12-14T19:01:36.102Z,68.57
2018-12-14T19:04:05.080Z,64.60
2018-12-14T19:06:33.946Z,49.43
2018-12-14T19:09:02.801Z,45.63
2018-12-14T19:11:31.815Z,67.30
2018-12-14T19:14:00.844Z,68.60
2018-12-14T19:16:30.715Z,89.73
2018-12-14T19:18:59.386Z,81.23
2018-12-14T19:21:28.816Z,73.93
2018-12-14T19:23:57.613Z,73.77
2018-12-14T19:26:26.483Z,84.07
2018-12-14T19:28:55.467Z,78.47
2018-12-14T19:31:24.716Z,86.23
2018-12-14T19:33:53.710Z,60.87
2018-12-14T19:36:22.698Z,51.47
2018-12-14T19:38:52.264Z,50.93
2018-12-14T19:41:21.296Z,47.40
2018-12-14T19:43:50.304Z,52.00
2018-12-14T19:46:19.251Z,51.97
2018-12-14T19:48:48.180Z,49.80
2018-12-14T19:51:17.176Z,53.33
2018-12-14T19:53:46.257Z,50.53
2018-12-14T19:56:15.287Z,53.23
2018-12-14T19:58:44.561Z,47.07
2018-12-14T20:01:13.641Z,47.17
2018-12-14T20:03:42.947Z,45.57
2018-12-14T20:06:11.569Z,48.33
2018-12-14T20:08:40.558Z,45.33
2018-12-14T20:11:09.668Z,44.47
2018-12-14T20:13:38.560Z,44.03
2018-12-14T20:16:12.794Z,41.43
2018-12-14T20:18:38.458Z,40.37
2018-12-14T20:21:07.128Z,40.77
2018-12-14T20:23:36.260Z,121.67
2018-12-14T20:26:05.105Z,79.53
2018-12-14T20:28:34.073Z,73.50
2018-12-14T20:31:03.102Z,65.00
2018-12-14T20:33:32.393Z,47.33
2018-12-14T20:36:00.999Z,41.10
2018-12-14T20:38:29.703Z,68.97
2018-12-14T20:40:58.751Z,89.23
2018-12-14T20:43:28.463Z,60.73
2018-12-14T20:45:57.660Z,59.60
2018-12-14T20:48:26.850Z,56.23
2018-12-14T20:50:55.828Z,53.20
2018-12-14T20:53:24.774Z,52.37
2018-12-14T20:55:53.431Z,48.00
2018-12-14T20:58:22.207Z,48.03
2018-12-14T21:00:50.986Z,54.87
2018-12-14T21:03:19.909Z,49.57
2018-12-14T21:05:48.849Z,53.53
2018-12-14T21:08:17.740Z,55.77
2018-12-14T21:10:46.656Z,57.50
2018-12-14T21:13:15.808Z,60.27
2018-12-14T21:15:44.823Z,54.07
2018-12-14T21:18:13.628Z,57.00
2018-12-14T21:20:42.540Z,57.93
2018-12-14T21:23:11.840Z,64.20
2018-12-14T21:25:40.973Z,61.47
2018-12-14T21:28:09.978Z,60.07
2018-12-14T21:30:38.666Z,61.23
2018-12-14T21:33:07.424Z,68.70
2018-12-14T21:35:36.299Z,69.73
2018-12-14T21:38:05.234Z,62.30
2018-12-14T21:40:34.252Z,61.67
2018-12-14T21:43:03.283Z,57.37
2018-12-14T21:45:32.235Z,51.30
2018-12-14T21:48:00.925Z,52.47
2018-12-14T21:50:29.692Z,46.93
2018-12-14T21:52:58.624Z,47.17
2018-12-14T21:55:27.648Z,50.03
2018-12-14T21:57:56.918Z,48.73
2018-12-14T22:00:25.884Z,50.10
2018-12-14T22:02:54.751Z,51.60
2018-12-14T22:05:23.802Z,49.63
2018-12-14T22:07:52.859Z,50.17
2018-12-14T22:10:21.585Z,53.57
2018-12-14T22:12:50.748Z,52.87
2018-12-14T22:15:19.617Z,54.10
2018-12-14T22:17:48.709Z,60.87
2018-12-14T22:20:17.772Z,55.27
2018-12-14T22:22:46.547Z,54.40
2018-12-14T22:25:15.236Z,56.20
2018-12-14T22:27:43.963Z,55.93
2018-12-14T22:30:12.749Z,57.97
2018-12-14T22:32:41.540Z,58.87
2018-12-14T22:35:10.556Z,57.13
2018-12-14T22:37:39.560Z,55.83
2018-12-14T22:40:08.834Z,57.83
2018-12-14T22:42:37.831Z,56.47
2018-12-14T22:45:07.300Z,57.93
2018-12-14T22:47:36.334Z,56.37
2018-12-14T22:50:05.517Z,58.27
2018-12-14T22:52:34.426Z,58.93
2018-12-14T22:55:03.574Z,72.43
2018-12-14T22:57:32.596Z,60.83
2018-12-14T23:00:01.284Z,55.27
2018-12-14T23:02:30.100Z,58.33
2018-12-14T23:04:59.163Z,60.60
2018-12-14T23:07:28.118Z,57.87
2018-12-14T23:09:57.032Z,60.67
2018-12-14T23:12:25.713Z,63.03
2018-12-14T23:14:54.679Z,62.23
2018-12-14T23:17:23.625Z,61.63
2018-12-14T23:19:52.535Z,56.77
2018-12-14T23:22:21.260Z,55.83
2018-12-14T23:24:50.289Z,57.40
2018-12-14T23:27:19.387Z,56.03
2018-12-14T23:29:48.345Z,53.57
2018-12-14T23:32:16.999Z,54.77
2018-12-14T23:34:45.883Z,55.87
2018-12-14T23:37:14.947Z,56.43
2018-12-14T23:39:43.808Z,57.97
2018-12-14T23:42:12.887Z,53.07
2018-12-14T23:44:41.649Z,56.90
2018-12-14T23:47:10.580Z,54.67
2018-12-14T23:49:39.513Z,56.53
2018-12-14T23:52:08.266Z,55.57
2018-12-14T23:54:37.342Z,53.77
2018-12-14T23:57:12.120Z,51.83
2018-12-14T23:59:37.500Z,53.40
